createdAt,value
2017-11-14T00:01:56.925Z,6.15
2017-11-14T00:04:24.366Z,6.11
2017-11-14T00:06:51.055Z,6.11
2017-11-14T00:09:17.740Z,6.20
2017-11-14T00:11:44.431Z,6.11
2017-11-14T00:14:11.128Z,6.03
2017-11-14T00:16:37.799Z,5.88
2017-11-14T00:19:04.583Z,5.95
2017-11-14T00:21:32.041Z,6.02
2017-11-14T00:23:58.670Z,5.98
2017-11-14T00:26:25.729Z,5.96
2017-11-14T00:28:52.401Z,5.88
2017-11-14T00:31:19.809Z,5.85
2017-11-14T00:33:47.257Z,5.60
2017-11-14T00:36:14.847Z,5.55
2017-11-14T00:38:41.547Z,5.53
2017-11-14T00:41:08.239Z,5.23
2017-11-14T00:43:34.892Z,5.11
2017-11-14T00:46:02.309Z,5.23
2017-11-14T00:48:29.037Z,5.28
2017-11-14T00:50:55.720Z,5.07
2017-11-14T00:53:22.415Z,4.99
2017-11-14T00:55:49.100Z,4.98
2017-11-14T00:58:15.756Z,4.90
2017-11-14T01:00:42.459Z,4.68
2017-11-14T01:03:09.182Z,4.57
2017-11-14T01:05:35.890Z,4.51
2017-11-14T01:08:02.610Z,4.53
2017-11-14T01:10:29.291Z,4.50
2017-11-14T01:12:56.718Z,4.57
2017-11-14T01:15:23.377Z,4.44
2017-11-14T01:17:50.076Z,4.16
2017-11-14T01:20:17.644Z,4.10
2017-11-14T01:22:44.312Z,4.19
2017-11-14T01:25:10.984Z,4.13
2017-11-14T01:27:37.698Z,4.06
2017-11-14T01:30:04.378Z,4.16
2017-11-14T01:32:31.834Z,4.19
2017-11-14T01:34:59.255Z,4.08
2017-11-14T01:37:25.931Z,4.22
2017-11-14T01:39:53.392Z,4.09
2017-11-14T01:42:20.097Z,4.08
2017-11-14T01:44:47.634Z,4.02
2017-11-14T01:47:14.365Z,3.87
2017-11-14T01:49:41.047Z,4.02
2017-11-14T01:52:07.713Z,3.76
2017-11-14T01:54:34.528Z,3.95
2017-11-14T01:57:01.255Z,3.74
2017-11-14T01:59:27.932Z,3.82
2017-11-14T02:01:54.656Z,3.82
2017-11-14T02:04:21.335Z,3.79
2017-11-14T02:06:48.065Z,3.74
2017-11-14T02:09:14.826Z,3.67
2017-11-14T02:11:41.532Z,3.74
2017-11-14T02:14:08.230Z,3.83
2017-11-14T02:16:35.706Z,3.69
2017-11-14T02:19:02.411Z,3.56
2017-11-14T02:21:29.165Z,3.61
2017-11-14T02:23:55.969Z,3.57
2017-11-14T02:26:22.708Z,3.72
2017-11-14T02:28:49.467Z,3.75
2017-11-14T02:31:16.253Z,3.80
2017-11-14T02:33:42.947Z,3.80
2017-11-14T02:36:09.777Z,3.76
2017-11-14T02:38:36.515Z,3.51
2017-11-14T02:41:03.265Z,3.38
2017-11-14T02:43:30.058Z,3.26
2017-11-14T02:45:56.825Z,3.41
2017-11-14T02:48:24.395Z,3.39
2017-11-14T02:50:51.885Z,3.30
2017-11-14T02:53:18.608Z,3.14
2017-11-14T02:55:45.337Z,3.26
2017-11-14T02:58:12.800Z,3.15
2017-11-14T03:00:40.299Z,3.15
2017-11-14T03:03:06.984Z,3.15
2017-11-14T03:05:33.671Z,2.92
2017-11-14T03:08:01.170Z,2.93
2017-11-14T03:10:27.873Z,2.97
2017-11-14T03:12:54.622Z,3.04
2017-11-14T03:15:21.310Z,3.03
2017-11-14T03:17:48.003Z,2.87
2017-11-14T03:20:14.740Z,2.92
2017-11-14T03:22:42.220Z,2.98
2017-11-14T03:25:08.901Z,2.94
2017-11-14T03:27:35.584Z,2.99
2017-11-14T03:30:03.166Z,2.92
2017-11-14T03:32:29.928Z,2.96
2017-11-14T03:34:56.634Z,3.04
2017-11-14T03:37:24.324Z,2.78
2017-11-14T03:39:51.101Z,2.67
2017-11-14T03:42:17.816Z,2.83
2017-11-14T03:44:44.564Z,2.93
2017-11-14T03:47:11.274Z,2.91
2017-11-14T03:49:38.723Z,2.62
2017-11-14T03:52:06.352Z,2.66
2017-11-14T03:54:33.049Z,2.74
2017-11-14T03:57:00.479Z,2.83
2017-11-14T03:59:27.317Z,2.77
2017-11-14T04:01:54.023Z,2.70
2017-11-14T04:04:20.708Z,2.66
2017-11-14T04:06:47.422Z,2.71
2017-11-14T04:09:14.136Z,2.63
2017-11-14T04:11:40.790Z,2.49
2017-11-14T04:14:07.501Z,2.57
2017-11-14T04:16:34.957Z,2.55
2017-11-14T04:19:01.638Z,2.55
2017-11-14T04:21:28.329Z,2.49
2017-11-14T04:23:55.000Z,2.57
2017-11-14T04:26:22.419Z,2.84
2017-11-14T04:28:49.097Z,2.59
2017-11-14T04:31:16.522Z,2.74
2017-11-14T04:33:43.180Z,2.73
2017-11-14T04:36:09.895Z,2.81
2017-11-14T04:38:36.547Z,2.82
2017-11-14T04:41:03.214Z,2.81
2017-11-14T04:43:29.938Z,2.93
2017-11-14T04:45:56.590Z,2.89
2017-11-14T04:48:23.300Z,2.93
2017-11-14T04:50:50.028Z,2.79
2017-11-14T04:53:16.723Z,2.81
2017-11-14T04:55:43.373Z,2.84
2017-11-14T04:58:10.064Z,2.95
2017-11-14T05:00:36.755Z,3.08
2017-11-14T05:03:03.426Z,3.16
2017-11-14T05:05:30.856Z,3.16
2017-11-14T05:07:57.525Z,3.24
2017-11-14T05:10:24.215Z,3.23
2017-11-14T05:12:50.945Z,3.29
2017-11-14T05:15:17.598Z,3.20
2017-11-14T05:17:44.250Z,3.26
2017-11-14T05:20:10.937Z,3.07
2017-11-14T05:22:38.439Z,3.27
2017-11-14T05:25:05.138Z,3.40
2017-11-14T05:27:32.583Z,3.52
2017-11-14T05:29:59.317Z,3.51
2017-11-14T05:32:25.989Z,3.51
2017-11-14T05:34:53.518Z,3.59
2017-11-14T05:37:20.223Z,3.61
2017-11-14T05:39:46.868Z,3.70
2017-11-14T05:42:13.579Z,3.63
2017-11-14T05:44:40.978Z,3.58
2017-11-14T05:47:07.656Z,3.51
2017-11-14T05:49:34.351Z,3.59
2017-11-14T05:52:01.020Z,3.64
2017-11-14T05:54:27.708Z,3.71
2017-11-14T05:56:55.195Z,3.75
2017-11-14T05:59:21.894Z,3.88
2017-11-14T06:01:48.581Z,3.73
2017-11-14T06:04:15.249Z,3.67
2017-11-14T06:06:41.898Z,3.58
2017-11-14T06:09:08.558Z,3.71
2017-11-14T06:11:35.232Z,3.70
2017-11-14T06:14:02.650Z,3.84
2017-11-14T06:16:29.305Z,4.00
2017-11-14T06:18:55.999Z,4.11
2017-11-14T06:21:22.672Z,4.18
2017-11-14T06:23:49.351Z,4.30
2017-11-14T06:26:16.057Z,4.37
2017-11-14T06:28:42.741Z,4.48
2017-11-14T06:31:10.183Z,4.65
2017-11-14T06:33:36.872Z,4.59
2017-11-14T06:36:03.572Z,4.61
2017-11-14T06:38:30.243Z,4.67
2017-11-14T06:40:56.975Z,4.83
2017-11-14T06:43:24.361Z,4.87
2017-11-14T06:45:51.039Z,4.97
2017-11-14T06:48:18.466Z,4.70
2017-11-14T06:50:45.148Z,4.92
2017-11-14T06:53:11.811Z,5.03
2017-11-14T06:55:38.505Z,5.18
2017-11-14T06:58:05.193Z,5.12
2017-11-14T07:00:31.871Z,5.25
2017-11-14T07:02:58.584Z,5.73
2017-11-14T07:05:26.002Z,6.24
2017-11-14T07:07:52.686Z,6.60
2017-11-14T07:10:19.365Z,7.46
2017-11-14T07:12:46.011Z,8.84
2017-11-14T07:15:12.683Z,10.71
2017-11-14T07:17:39.367Z,12.93
2017-11-14T07:20:07.677Z,15.92
2017-11-14T07:22:34.354Z,17.99
2017-11-14T07:25:01.036Z,19.91
2017-11-14T07:27:28.419Z,20.96
2017-11-14T07:29:55.059Z,23.04
2017-11-14T07:32:21.883Z,21.47
2017-11-14T07:34:49.320Z,22.02
2017-11-14T07:37:15.975Z,23.56
2017-11-14T07:39:42.675Z,21.23
2017-11-14T07:42:09.344Z,21.81
2017-11-14T07:44:36.011Z,22.92
2017-11-14T07:47:03.466Z,25.80
2017-11-14T07:49:30.151Z,26.03
2017-11-14T07:51:56.823Z,26.38
2017-11-14T07:54:23.564Z,28.01
2017-11-14T07:56:50.964Z,26.95
2017-11-14T07:59:18.369Z,26.20
2017-11-14T08:01:45.096Z,24.45
2017-11-14T08:04:11.808Z,27.07
2017-11-14T08:06:38.504Z,26.63
2017-11-14T08:09:05.232Z,26.37
2017-11-14T08:11:31.910Z,29.16
2017-11-14T08:13:58.575Z,27.59
2017-11-14T08:16:25.257Z,27.60
2017-11-14T08:18:51.925Z,27.15
2017-11-14T08:21:18.652Z,27.09
2017-11-14T08:23:46.154Z,26.29
2017-11-14T08:26:12.847Z,26.72
2017-11-14T08:28:39.499Z,28.61
2017-11-14T08:31:06.176Z,29.04
2017-11-14T08:33:32.922Z,31.51
2017-11-14T08:36:00.022Z,34.05
2017-11-14T08:38:26.692Z,31.38
2017-11-14T08:40:53.396Z,31.14
2017-11-14T08:43:20.795Z,31.73
2017-11-14T08:45:47.573Z,27.92
2017-11-14T08:48:14.243Z,28.21
2017-11-14T08:50:41.671Z,27.61
2017-11-14T08:53:08.406Z,28.05
2017-11-14T08:55:35.058Z,28.33
2017-11-14T08:58:01.730Z,27.42
2017-11-14T09:00:29.193Z,27.99
2017-11-14T09:02:56.618Z,28.28
2017-11-14T09:05:23.324Z,27.06
2017-11-14T09:07:50.040Z,27.98
2017-11-14T09:10:17.514Z,26.60
2017-11-14T09:12:44.237Z,25.57
2017-11-14T09:15:11.734Z,26.65
2017-11-14T09:17:38.479Z,26.40
2017-11-14T09:20:05.219Z,27.19
2017-11-14T09:22:31.927Z,28.19
2017-11-14T09:24:58.752Z,28.73
2017-11-14T09:27:25.508Z,30.41
2017-11-14T09:29:52.292Z,27.98
2017-11-14T09:32:18.994Z,26.43
2017-11-14T09:34:45.771Z,25.45
2017-11-14T09:37:13.291Z,26.07
2017-11-14T09:39:40.020Z,24.91
2017-11-14T09:42:06.801Z,25.07
2017-11-14T09:44:33.625Z,25.37
2017-11-14T09:47:00.405Z,26.93
2017-11-14T09:49:27.903Z,27.01
2017-11-14T09:51:54.667Z,25.45
2017-11-14T09:54:21.439Z,25.14
2017-11-14T09:56:48.231Z,24.57
2017-11-14T09:59:15.067Z,22.92
2017-11-14T10:01:41.775Z,24.54
2017-11-14T10:04:08.540Z,26.65
2017-11-14T10:06:36.074Z,27.37
2017-11-14T10:09:02.899Z,29.64
2017-11-14T10:11:29.728Z,25.70
2017-11-14T10:13:56.505Z,25.94
2017-11-14T10:16:23.252Z,26.35
2017-11-14T10:18:49.971Z,27.87
2017-11-14T10:21:16.744Z,27.46
2017-11-14T10:23:43.503Z,26.95
2017-11-14T10:26:10.243Z,27.88
2017-11-14T10:28:37.063Z,28.40
2017-11-14T10:31:03.852Z,26.64
2017-11-14T10:33:31.352Z,26.08
2017-11-14T10:35:58.152Z,25.75
2017-11-14T10:38:24.872Z,26.81
2017-11-14T10:40:51.638Z,24.76
2017-11-14T10:43:19.080Z,23.67
2017-11-14T10:45:45.899Z,24.72
2017-11-14T10:48:12.637Z,26.37
2017-11-14T10:50:39.391Z,27.03
2017-11-14T10:53:06.117Z,26.07
2017-11-14T10:55:32.863Z,25.54
2017-11-14T10:57:59.620Z,26.48
2017-11-14T11:13:49.439Z,28.11
2017-11-14T11:16:16.236Z,27.34
2017-11-14T11:18:42.992Z,27.77
2017-11-14T11:21:09.797Z,27.58
2017-11-14T11:23:37.980Z,26.82
2017-11-14T11:26:05.469Z,25.92
2017-11-14T11:28:32.254Z,26.62
2017-11-14T11:30:58.989Z,26.69
2017-11-14T11:33:25.743Z,26.88
2017-11-14T11:35:52.491Z,26.90
2017-11-14T11:38:19.267Z,26.43
2017-11-14T11:40:46.800Z,25.91
2017-11-14T11:43:13.733Z,23.29
2017-11-14T11:45:40.622Z,24.50
2017-11-14T11:48:08.163Z,25.61
2017-11-14T11:50:35.012Z,25.32
2017-11-14T11:53:01.715Z,25.52
2017-11-14T11:55:28.524Z,25.16
2017-11-14T11:57:56.084Z,23.85
2017-11-14T12:00:23.637Z,24.49
2017-11-14T12:02:50.412Z,23.77
2017-11-14T12:05:17.187Z,23.89
2017-11-14T12:07:43.900Z,22.98
2017-11-14T12:10:11.445Z,23.05
2017-11-14T12:12:38.980Z,23.23
2017-11-14T12:15:05.741Z,22.68
2017-11-14T12:17:32.499Z,22.17
2017-11-14T12:20:00.053Z,22.15
2017-11-14T12:22:26.825Z,22.93
2017-11-14T12:24:53.565Z,22.34
2017-11-14T12:27:21.088Z,20.51
2017-11-14T12:29:47.800Z,19.09
2017-11-14T12:32:14.531Z,18.70
2017-11-14T12:34:41.297Z,18.57
2017-11-14T12:37:07.998Z,18.28
2017-11-14T12:39:34.691Z,17.40
2017-11-14T12:42:01.417Z,17.51
2017-11-14T12:44:28.128Z,17.30
2017-11-14T12:46:54.855Z,16.68
2017-11-14T12:49:21.561Z,16.54
2017-11-14T12:51:48.260Z,16.65
2017-11-14T12:54:15.705Z,16.95
2017-11-14T12:56:43.250Z,17.31
2017-11-14T12:59:09.951Z,17.15
2017-11-14T13:01:36.661Z,16.83
2017-11-14T13:04:04.203Z,17.12
2017-11-14T13:06:30.877Z,17.20
2017-11-14T13:08:57.574Z,17.37
2017-11-14T13:11:24.304Z,16.75
2017-11-14T13:13:51.017Z,16.98
2017-11-14T13:16:17.756Z,15.78
2017-11-14T13:18:45.246Z,14.66
2017-11-14T13:21:11.951Z,14.26
2017-11-14T13:23:39.700Z,13.86
2017-11-14T13:26:07.153Z,13.68
2017-11-14T13:28:33.877Z,13.79
2017-11-14T13:31:00.939Z,13.13
2017-11-14T13:33:27.739Z,12.66
2017-11-14T13:35:54.525Z,12.34
2017-11-14T13:38:22.001Z,12.40
2017-11-14T13:40:49.107Z,12.24
2017-11-14T13:43:15.774Z,11.64
2017-11-14T13:45:42.442Z,11.58
2017-11-14T13:48:09.468Z,11.38
2017-11-14T13:50:36.451Z,11.19
2017-11-14T13:53:03.268Z,11.18
2017-11-14T13:55:29.961Z,11.19
2017-11-14T13:57:57.412Z,11.07
2017-11-14T14:00:24.850Z,10.91
2017-11-14T14:02:51.570Z,10.82
2017-11-14T14:05:18.307Z,10.72
2017-11-14T14:07:45.001Z,10.60
2017-11-14T14:10:12.474Z,10.52
2017-11-14T14:12:39.903Z,10.49
2017-11-14T14:15:06.592Z,10.28
2017-11-14T14:17:33.304Z,10.20
2017-11-14T14:19:59.973Z,9.92
2017-11-14T14:22:27.387Z,9.54
2017-11-14T14:24:54.062Z,9.40
2017-11-14T14:27:21.606Z,9.14
2017-11-14T14:29:48.290Z,8.91
2017-11-14T14:32:15.003Z,8.85
2017-11-14T14:34:42.403Z,8.88
2017-11-14T14:37:09.052Z,8.92
2017-11-14T14:39:35.755Z,8.80
2017-11-14T14:42:03.262Z,8.71
2017-11-14T14:44:29.929Z,8.65
2017-11-14T14:46:56.612Z,8.55
2017-11-14T14:49:25.041Z,8.45
2017-11-14T14:51:51.755Z,8.50
2017-11-14T14:54:18.477Z,8.44
2017-11-14T14:56:45.882Z,8.53
2017-11-14T14:59:12.577Z,8.30
2017-11-14T15:01:40.008Z,8.27
2017-11-14T15:04:06.709Z,8.26
2017-11-14T15:06:33.380Z,8.23
2017-11-14T15:09:00.084Z,8.08
2017-11-14T15:11:26.745Z,8.20
2017-11-14T15:13:53.623Z,8.23
2017-11-14T15:16:20.373Z,8.20
2017-11-14T15:18:47.077Z,7.96
2017-11-14T15:21:13.785Z,7.84
2017-11-14T15:23:41.291Z,7.95
2017-11-14T15:26:08.031Z,7.80
2017-11-14T15:28:34.767Z,7.79
2017-11-14T15:31:01.552Z,7.83
2017-11-14T15:33:28.301Z,7.69
2017-11-14T15:35:54.971Z,7.77
2017-11-14T15:38:23.481Z,7.60
2017-11-14T15:40:50.165Z,7.34
2017-11-14T15:43:16.834Z,7.42
2017-11-14T15:45:44.268Z,7.48
2017-11-14T15:48:10.941Z,7.53
2017-11-14T15:50:38.341Z,7.46
2017-11-14T15:53:05.073Z,7.39
2017-11-14T15:55:32.677Z,7.38
2017-11-14T15:57:59.337Z,7.34
2017-11-14T16:00:26.076Z,7.31
2017-11-14T16:02:52.741Z,7.23
2017-11-14T16:05:20.158Z,7.08
2017-11-14T16:07:46.959Z,6.71
2017-11-14T16:10:14.408Z,6.67
2017-11-14T16:12:42.720Z,6.52
2017-11-14T16:15:10.609Z,6.35
2017-11-14T16:17:37.381Z,6.28
2017-11-14T16:20:04.125Z,6.20
2017-11-14T16:22:30.933Z,6.09
2017-11-14T16:24:57.628Z,6.15
2017-11-14T16:27:25.108Z,5.95
2017-11-14T16:29:52.588Z,5.99
2017-11-14T16:32:19.351Z,5.75
2017-11-14T16:34:46.152Z,5.55
2017-11-14T16:37:13.653Z,5.61
2017-11-14T16:39:41.333Z,5.28
2017-11-14T16:42:08.063Z,5.33
2017-11-14T16:44:34.796Z,5.33
2017-11-14T16:47:01.498Z,5.28
2017-11-14T16:49:29.782Z,4.90
2017-11-14T16:51:56.484Z,4.90
2017-11-14T16:54:23.209Z,5.02
2017-11-14T16:56:50.003Z,5.07
2017-11-14T16:59:16.776Z,4.98
2017-11-14T17:01:44.223Z,5.00
2017-11-14T17:04:10.922Z,5.01
2017-11-14T17:06:37.757Z,4.80
2017-11-14T17:09:04.918Z,4.72
2017-11-14T17:11:31.822Z,4.69
2017-11-14T17:13:59.418Z,4.75
2017-11-14T17:16:26.242Z,4.73
2017-11-14T17:18:52.964Z,4.59
2017-11-14T17:21:19.792Z,4.68
2017-11-14T17:23:46.499Z,4.55
2017-11-14T17:26:13.226Z,4.49
2017-11-14T17:28:39.988Z,4.36
2017-11-14T17:31:06.772Z,4.37
2017-11-14T17:33:33.498Z,4.45
2017-11-14T17:36:00.356Z,4.25
2017-11-14T17:38:27.044Z,4.17
2017-11-14T17:40:54.468Z,4.04
2017-11-14T17:43:21.204Z,3.84
2017-11-14T17:45:47.886Z,3.74
2017-11-14T17:48:15.293Z,3.65
2017-11-14T17:50:42.000Z,3.55
2017-11-14T17:53:08.748Z,3.60
2017-11-14T17:55:35.451Z,3.78
2017-11-14T17:58:02.167Z,3.54
2017-11-14T18:00:28.861Z,3.35
2017-11-14T18:02:55.542Z,3.47
2017-11-14T18:05:22.308Z,3.28
2017-11-14T18:07:48.988Z,3.24
2017-11-14T18:10:16.488Z,3.23
2017-11-14T18:12:43.189Z,3.34
2017-11-14T18:15:10.635Z,3.27
2017-11-14T18:17:37.320Z,3.19
2017-11-14T18:20:04.052Z,3.22
2017-11-14T18:22:31.477Z,3.21
2017-11-14T18:24:58.171Z,3.30
2017-11-14T18:27:24.892Z,3.34
2017-11-14T18:29:52.343Z,3.38
2017-11-14T18:32:19.771Z,3.37
2017-11-14T18:34:46.500Z,3.40
2017-11-14T18:37:13.183Z,3.30
2017-11-14T18:39:40.632Z,3.35
2017-11-14T18:42:07.332Z,3.18
2017-11-14T18:44:34.053Z,3.20
2017-11-14T18:47:01.572Z,3.11
2017-11-14T18:49:28.319Z,3.13
2017-11-14T18:51:55.037Z,3.14
2017-11-14T18:54:21.777Z,3.13
2017-11-14T18:56:48.503Z,2.97
2017-11-14T18:59:15.206Z,2.93
2017-11-14T19:01:41.920Z,2.94
2017-11-14T19:04:09.830Z,2.97
2017-11-14T19:06:37.231Z,2.98
2017-11-14T19:09:04.038Z,2.93
2017-11-14T19:11:30.879Z,2.72
2017-11-14T19:13:57.535Z,2.89
2017-11-14T19:16:25.028Z,2.80
2017-11-14T19:18:51.735Z,2.70
2017-11-14T19:21:18.443Z,2.56
2017-11-14T19:26:18.771Z,2.55
2017-11-14T19:28:45.517Z,2.47
2017-11-14T19:31:12.225Z,2.46
2017-11-14T19:33:39.804Z,2.57
2017-11-14T19:36:06.540Z,2.57
2017-11-14T19:38:33.228Z,2.43
2017-11-14T19:41:00.593Z,2.36
2017-11-14T19:43:27.324Z,2.44
2017-11-14T19:45:54.020Z,2.31
2017-11-14T19:48:21.552Z,2.16
2017-11-14T19:50:49.047Z,2.17
2017-11-14T19:53:16.585Z,2.14
2017-11-14T19:55:43.322Z,1.80
2017-11-14T19:58:10.045Z,1.80
2017-11-14T20:00:36.757Z,1.75
2017-11-14T20:03:03.536Z,1.44
2017-11-14T20:05:30.265Z,1.45
2017-11-14T20:07:57.020Z,1.55
2017-11-14T20:10:23.820Z,1.50
2017-11-14T20:12:51.324Z,1.48
2017-11-14T20:15:18.065Z,1.50
2017-11-14T20:17:44.848Z,1.33
2017-11-14T20:20:12.044Z,1.30
2017-11-14T20:22:39.050Z,1.21
2017-11-14T20:25:05.871Z,1.17
2017-11-14T20:27:32.644Z,1.23
2017-11-14T20:30:00.115Z,1.17
2017-11-14T20:32:27.674Z,1.21
2017-11-14T20:34:54.390Z,0.91
2017-11-14T20:37:21.094Z,0.91
2017-11-14T20:39:47.883Z,0.90
2017-11-14T20:42:14.713Z,1.05
2017-11-14T20:44:41.494Z,0.92
2017-11-14T20:47:08.246Z,0.91
2017-11-14T20:49:34.957Z,1.07
2017-11-14T20:52:01.663Z,1.21
2017-11-14T20:54:28.458Z,1.01
2017-11-14T20:56:55.195Z,1.01
2017-11-14T20:59:22.651Z,1.04
2017-11-14T21:01:49.389Z,1.14
2017-11-14T21:04:16.241Z,1.07
2017-11-14T21:06:43.053Z,0.97
2017-11-14T21:09:09.752Z,0.95
2017-11-14T21:11:36.476Z,1.00
2017-11-14T21:14:03.146Z,0.99
2017-11-14T21:16:29.896Z,0.83
2017-11-14T21:18:56.609Z,0.67
2017-11-14T21:21:23.300Z,0.82
2017-11-14T21:23:50.768Z,0.80
2017-11-14T21:26:18.267Z,0.90
2017-11-14T21:28:45.741Z,0.99
2017-11-14T21:31:12.536Z,0.87
2017-11-14T21:33:39.262Z,0.91
2017-11-14T21:36:07.738Z,0.80
2017-11-14T21:38:34.532Z,0.90
2017-11-14T21:41:01.245Z,0.95
2017-11-14T21:43:28.691Z,0.96
2017-11-14T21:45:55.761Z,0.99
2017-11-14T21:48:23.560Z,0.97
2017-11-14T21:50:50.257Z,0.88
2017-11-14T21:53:16.951Z,0.62
2017-11-14T21:55:45.720Z,0.36
2017-11-14T21:58:12.454Z,0.32
2017-11-14T22:00:39.254Z,0.14
2017-11-14T22:03:05.979Z,0.13
2017-11-14T22:05:32.781Z,0.13
2017-11-14T22:08:00.292Z,0.28
2017-11-14T22:10:26.993Z,0.31
2017-11-14T22:12:54.491Z,0.21
2017-11-14T22:15:21.256Z,0.31
2017-11-14T22:17:47.905Z,0.34
2017-11-14T22:20:14.582Z,0.25
2017-11-14T22:22:42.068Z,0.15
2017-11-14T22:25:08.755Z,0.08
2017-11-14T22:27:35.463Z,0.17
2017-11-14T22:30:03.112Z,0.18
2017-11-14T22:32:29.764Z,0.12
2017-11-14T22:34:57.424Z,0.19
2017-11-14T22:37:24.123Z,0.13
2017-11-14T22:39:50.799Z,0.08
2017-11-14T22:42:18.261Z,0.05
2017-11-14T22:44:45.766Z,0.03
2017-11-14T22:47:13.416Z,0.14
2017-11-14T22:49:40.128Z,-0.08
2017-11-14T22:52:07.565Z,-0.01
2017-11-14T22:54:35.236Z,-0.17
2017-11-14T22:57:01.931Z,-0.16
2017-11-14T22:59:28.676Z,-0.17
2017-11-14T23:01:55.989Z,-0.10
2017-11-14T23:04:23.422Z,-0.04
2017-11-14T23:06:52.385Z,0.01
2017-11-14T23:09:19.185Z,0.02
2017-11-14T23:11:45.889Z,-0.02
2017-11-14T23:14:12.638Z,-0.06
2017-11-14T23:16:39.329Z,-0.17
2017-11-14T23:19:07.533Z,-0.22
2017-11-14T23:21:34.223Z,-0.19
2017-11-14T23:24:00.949Z,-0.22
2017-11-14T23:26:27.763Z,-0.41
2017-11-14T23:28:54.456Z,-0.24
2017-11-14T23:31:21.154Z,-0.33
2017-11-14T23:33:47.856Z,-0.29
2017-11-14T23:36:14.559Z,-0.36
2017-11-14T23:38:44.724Z,-0.28
2017-11-14T23:41:11.412Z,-0.33
2017-11-14T23:43:38.140Z,-0.30
2017-11-14T23:46:04.826Z,-0.26
2017-11-14T23:48:32.477Z,-0.31
2017-11-14T23:50:59.819Z,-0.44
2017-11-14T23:53:26.539Z,-0.46
2017-11-14T23:55:53.952Z,-0.34
2017-11-14T23:58:23.540Z,-0.32
